sensor_id;sensor_type;location;lat;lon;timestamp;pressure;altitude;pressure_sealevel;temperature;humidity
70127;BME280;57491;42.694;23.314;2024-03-02T00:01:38;94582.38;;;9.73;71.86
70127;BME280;57491;42.694;23.314;2024-03-02T00:04:07;94601.94;;;9.55;72.05
70127;BME280;57491;42.694;23.314;2024-03-02T00:06:34;94602.81;;;9.40;72.54
70127;BME280;57491;42.694;23.314;2024-03-02T00:09:02;94591.94;;;9.52;72.58
70127;BME280;57491;42.694;23.314;2024-03-02T00:11:29;94599.41;;;9.40;71.96
70127;BME280;57491;42.694;23.314;2024-03-02T00:13:57;94606.09;;;8.99;73.68
70127;BME280;57491;42.694;23.314;2024-03-02T00:16:30;94590.63;;;8.90;73.92
70127;BME280;57491;42.694;23.314;2024-03-02T00:19:03;94589.91;;;8.96;74.41
70127;BME280;57491;42.694;23.314;2024-03-02T00:21:31;94597.59;;;9.05;74.70
70127;BME280;57491;42.694;23.314;2024-03-02T00:23:59;94602.25;;;9.09;73.73
70127;BME280;57491;42.694;23.314;2024-03-02T00:26:28;94585.78;;;9.17;73.60
70127;BME280;57491;42.694;23.314;2024-03-02T00:28:56;94583.59;;;9.20;73.47
70127;BME280;57491;42.694;23.314;2024-03-02T00:31:24;94571.28;;;9.22;73.73
70127;BME280;57491;42.694;23.314;2024-03-02T00:33:51;94580.19;;;9.34;73.64
70127;BME280;57491;42.694;23.314;2024-03-02T00:36:25;94585.00;;;9.37;73.05
70127;BME280;57491;42.694;23.314;2024-03-02T00:38:54;94581.25;;;9.40;72.72
70127;BME280;57491;42.694;23.314;2024-03-02T00:41:24;94565.38;;;9.50;72.49
70127;BME280;57491;42.694;23.314;2024-03-02T00:43:58;94561.06;;;9.57;71.73
70127;BME280;57491;42.694;23.314;2024-03-02T00:46:27;94562.38;;;9.67;71.22
70127;BME280;57491;42.694;23.314;2024-03-02T00:48:57;94569.34;;;9.67;71.05
70127;BME280;57491;42.694;23.314;2024-03-02T00:51:29;94551.78;;;9.69;70.74
70127;BME280;57491;42.694;23.314;2024-03-02T00:53:59;94550.06;;;9.76;70.85
70127;BME280;57491;42.694;23.314;2024-03-02T00:56:27;94560.56;;;9.89;70.66
70127;BME280;57491;42.694;23.314;2024-03-02T00:58:54;94552.19;;;9.94;70.08
70127;BME280;57491;42.694;23.314;2024-03-02T01:01:21;94560.84;;;10.01;69.70
70127;BME280;57491;42.694;23.314;2024-03-02T01:03:49;94570.81;;;9.97;69.57
70127;BME280;57491;42.694;23.314;2024-03-02T01:06:16;94565.44;;;9.99;70.00
70127;BME280;57491;42.694;23.314;2024-03-02T01:08:45;94569.41;;;9.95;69.85
70127;BME280;57491;42.694;23.314;2024-03-02T01:11:16;94575.22;;;9.75;69.77
70127;BME280;57491;42.694;23.314;2024-03-02T01:13:44;94567.84;;;9.79;70.11
70127;BME280;57491;42.694;23.314;2024-03-02T01:16:12;94568.56;;;9.73;70.65
70127;BME280;57491;42.694;23.314;2024-03-02T01:18:39;94558.75;;;9.90;69.94
70127;BME280;57491;42.694;23.314;2024-03-02T01:21:06;94552.81;;;9.96;70.20
70127;BME280;57491;42.694;23.314;2024-03-02T01:23:34;94553.72;;;10.09;70.23
70127;BME280;57491;42.694;23.314;2024-03-02T01:26:03;94549.84;;;10.20;69.16
70127;BME280;57491;42.694;23.314;2024-03-02T01:28:30;94539.50;;;10.26;69.35
70127;BME280;57491;42.694;23.314;2024-03-02T01:30:57;94549.84;;;10.20;69.13
70127;BME280;57491;42.694;23.314;2024-03-02T01:33:25;94529.97;;;10.12;68.89
70127;BME280;57491;42.694;23.314;2024-03-02T01:35:52;94541.06;;;10.21;69.05
70127;BME280;57491;42.694;23.314;2024-03-02T01:38:19;94536.44;;;10.16;69.18
70127;BME280;57491;42.694;23.314;2024-03-02T01:40:46;94536.03;;;10.19;69.08
70127;BME280;57491;42.694;23.314;2024-03-02T01:43:15;94534.97;;;10.14;69.65
70127;BME280;57491;42.694;23.314;2024-03-02T01:45:42;94533.16;;;10.14;69.69
70127;BME280;57491;42.694;23.314;2024-03-02T01:48:10;94537.22;;;10.17;69.98
70127;BME280;57491;42.694;23.314;2024-03-02T01:50:37;94525.22;;;10.16;70.57
70127;BME280;57491;42.694;23.314;2024-03-02T01:53:05;94527.84;;;10.22;71.01
70127;BME280;57491;42.694;23.314;2024-03-02T01:55:33;94529.22;;;10.18;69.20
70127;BME280;57491;42.694;23.314;2024-03-02T01:58:01;94531.94;;;10.10;70.10
70127;BME280;57491;42.694;23.314;2024-03-02T02:00:30;94525.09;;;10.03;70.60
70127;BME280;57491;42.694;23.314;2024-03-02T02:02:58;94531.53;;;10.07;69.90
70127;BME280;57491;42.694;23.314;2024-03-02T02:05:25;94533.72;;;10.10;69.89
70127;BME280;57491;42.694;23.314;2024-03-02T02:07:52;94523.16;;;10.11;70.29
70127;BME280;57491;42.694;23.314;2024-03-02T02:10:20;94518.38;;;10.08;69.79
70127;BME280;57491;42.694;23.314;2024-03-02T02:12:47;94525.06;;;10.17;70.08
70127;BME280;57491;42.694;23.314;2024-03-02T02:15:25;94522.06;;;10.20;70.23
70127;BME280;57491;42.694;23.314;2024-03-02T02:17:54;94527.03;;;10.15;70.14
70127;BME280;57491;42.694;23.314;2024-03-02T02:20:21;94517.97;;;10.11;71.16
70127;BME280;57491;42.694;23.314;2024-03-02T02:22:58;94523.75;;;10.13;71.08
70127;BME280;57491;42.694;23.314;2024-03-02T02:25:25;94514.09;;;10.01;71.44
70127;BME280;57491;42.694;23.314;2024-03-02T02:27:53;94518.56;;;10.13;71.30
70127;BME280;57491;42.694;23.314;2024-03-02T02:30:21;94526.63;;;10.18;72.60
70127;BME280;57491;42.694;23.314;2024-03-02T02:32:49;94533.03;;;10.16;71.00
70127;BME280;57491;42.694;23.314;2024-03-02T02:35:16;94533.47;;;9.98;71.28
70127;BME280;57491;42.694;23.314;2024-03-02T02:37:44;94528.16;;;9.85;71.91
70127;BME280;57491;42.694;23.314;2024-03-02T02:40:14;94512.38;;;9.86;71.32
70127;BME280;57491;42.694;23.314;2024-03-02T02:42:41;94526.56;;;10.12;71.12
70127;BME280;57491;42.694;23.314;2024-03-02T02:45:08;94533.81;;;10.16;70.53
70127;BME280;57491;42.694;23.314;2024-03-02T02:47:36;94527.44;;;10.19;70.33
70127;BME280;57491;42.694;23.314;2024-03-02T02:50:06;94529.13;;;10.26;70.05
70127;BME280;57491;42.694;23.314;2024-03-02T02:52:37;94540.34;;;10.40;70.03
70127;BME280;57491;42.694;23.314;2024-03-02T02:55:07;94537.16;;;10.38;69.65
70127;BME280;57491;42.694;23.314;2024-03-02T02:57:37;94537.88;;;10.25;70.39
70127;BME280;57491;42.694;23.314;2024-03-02T03:00:07;94522.91;;;10.27;70.05
70127;BME280;57491;42.694;23.314;2024-03-02T03:02:40;94546.38;;;10.41;70.57
70127;BME280;57491;42.694;23.314;2024-03-02T03:05:08;94537.06;;;10.53;71.09
70127;BME280;57491;42.694;23.314;2024-03-02T03:07:36;94547.31;;;10.61;70.63
70127;BME280;57491;42.694;23.314;2024-03-02T03:10:03;94541.75;;;10.70;71.57
70127;BME280;57491;42.694;23.314;2024-03-02T03:12:31;94541.81;;;10.84;69.93
70127;BME280;57491;42.694;23.314;2024-03-02T03:14:59;94535.66;;;10.91;69.27
70127;BME280;57491;42.694;23.314;2024-03-02T03:17:27;94540.06;;;10.97;69.54
70127;BME280;57491;42.694;23.314;2024-03-02T03:19:54;94531.13;;;11.06;70.03
70127;BME280;57491;42.694;23.314;2024-03-02T03:22:22;94537.53;;;11.10;69.79
70127;BME280;57491;42.694;23.314;2024-03-02T03:24:49;94532.50;;;11.02;68.85
70127;BME280;57491;42.694;23.314;2024-03-02T03:27:16;94531.66;;;10.95;69.81
70127;BME280;57491;42.694;23.314;2024-03-02T03:29:43;94539.69;;;11.00;69.18
70127;BME280;57491;42.694;23.314;2024-03-02T03:32:12;94539.06;;;10.92;69.67
70127;BME280;57491;42.694;23.314;2024-03-02T03:34:39;94537.84;;;10.88;70.41
70127;BME280;57491;42.694;23.314;2024-03-02T03:37:07;94537.59;;;10.83;69.72
70127;BME280;57491;42.694;23.314;2024-03-02T03:39:35;94533.81;;;10.85;70.20
70127;BME280;57491;42.694;23.314;2024-03-02T03:42:02;94542.22;;;10.87;70.26
70127;BME280;57491;42.694;23.314;2024-03-02T03:44:30;94531.00;;;10.80;70.74
70127;BME280;57491;42.694;23.314;2024-03-02T03:46:57;94535.59;;;10.78;70.32
70127;BME280;57491;42.694;23.314;2024-03-02T03:49:26;94536.00;;;10.82;70.75
70127;BME280;57491;42.694;23.314;2024-03-02T03:51:53;94539.44;;;10.89;70.06
70127;BME280;57491;42.694;23.314;2024-03-02T03:54:21;94535.81;;;10.83;70.82
70127;BME280;57491;42.694;23.314;2024-03-02T03:56:48;94537.22;;;10.86;70.50
70127;BME280;57491;42.694;23.314;2024-03-02T03:59:15;94542.06;;;10.54;70.50
70127;BME280;57491;42.694;23.314;2024-03-02T04:01:43;94541.06;;;10.55;71.35
70127;BME280;57491;42.694;23.314;2024-03-02T04:04:10;94536.09;;;10.60;71.58
70127;BME280;57491;42.694;23.314;2024-03-02T04:06:38;94532.53;;;10.68;71.08
70127;BME280;57491;42.694;23.314;2024-03-02T04:09:06;94532.41;;;10.76;71.40
70127;BME280;57491;42.694;23.314;2024-03-02T04:11:33;94531.59;;;10.82;71.98
70127;BME280;57491;42.694;23.314;2024-03-02T04:14:01;94529.44;;;10.92;70.51
70127;BME280;57491;42.694;23.314;2024-03-02T04:16:28;94532.22;;;10.84;69.47
70127;BME280;57491;42.694;23.314;2024-03-02T04:18:55;94535.56;;;10.71;70.08
70127;BME280;57491;42.694;23.314;2024-03-02T04:21:23;94523.09;;;10.60;70.91
70127;BME280;57491;42.694;23.314;2024-03-02T04:23:51;94536.75;;;10.69;70.66
70127;BME280;57491;42.694;23.314;2024-03-02T04:26:23;94529.78;;;10.76;71.78
70127;BME280;57491;42.694;23.314;2024-03-02T04:28:51;94535.19;;;10.81;71.26
70127;BME280;57491;42.694;23.314;2024-03-02T04:31:18;94532.53;;;10.68;71.68
70127;BME280;57491;42.694;23.314;2024-03-02T04:33:45;94527.31;;;10.68;71.81
70127;BME280;57491;42.694;23.314;2024-03-02T04:36:13;94540.19;;;10.76;71.10
70127;BME280;57491;42.694;23.314;2024-03-02T04:38:40;94542.16;;;10.74;71.26
70127;BME280;57491;42.694;23.314;2024-03-02T04:41:09;94542.09;;;10.61;71.99
70127;BME280;57491;42.694;23.314;2024-03-02T04:43:36;94544.88;;;10.59;72.12
70127;BME280;57491;42.694;23.314;2024-03-02T04:46:04;94544.31;;;10.64;72.39
70127;BME280;57491;42.694;23.314;2024-03-02T04:48:32;94547.31;;;10.67;74.03
70127;BME280;57491;42.694;23.314;2024-03-02T04:51:01;94537.00;;;10.81;74.49
70127;BME280;57491;42.694;23.314;2024-03-02T04:53:28;94549.84;;;10.89;73.85
70127;BME280;57491;42.694;23.314;2024-03-02T04:55:55;94549.28;;;10.93;73.30
70127;BME280;57491;42.694;23.314;2024-03-02T04:58:47;94546.66;;;10.93;74.30
70127;BME280;57491;42.694;23.314;2024-03-02T05:01:14;94546.44;;;10.95;73.72
70127;BME280;57491;42.694;23.314;2024-03-02T05:03:43;94555.28;;;10.94;72.82
70127;BME280;57491;42.694;23.314;2024-03-02T05:06:11;94557.41;;;10.84;72.94
70127;BME280;57491;42.694;23.314;2024-03-02T05:08:38;94550.31;;;10.64;73.90
70127;BME280;57491;42.694;23.314;2024-03-02T05:11:05;94560.81;;;10.50;73.88
70127;BME280;57491;42.694;23.314;2024-03-02T05:13:47;94561.78;;;10.42;74.89
70127;BME280;57491;42.694;23.314;2024-03-02T05:16:15;94560.13;;;10.35;75.73
70127;BME280;57491;42.694;23.314;2024-03-02T05:18:42;94565.13;;;10.36;75.52
70127;BME280;57491;42.694;23.314;2024-03-02T05:21:09;94573.88;;;10.28;75.99
70127;BME280;57491;42.694;23.314;2024-03-02T05:23:37;94572.47;;;10.26;76.12
70127;BME280;57491;42.694;23.314;2024-03-02T05:26:04;94576.78;;;10.19;76.69
70127;BME280;57491;42.694;23.314;2024-03-02T05:28:32;94571.66;;;10.25;76.67
70127;BME280;57491;42.694;23.314;2024-03-02T05:31:00;94572.88;;;10.29;77.64
70127;BME280;57491;42.694;23.314;2024-03-02T05:33:27;94576.31;;;10.37;77.00
70127;BME280;57491;42.694;23.314;2024-03-02T05:35:57;94574.34;;;10.39;76.49
70127;BME280;57491;42.694;23.314;2024-03-02T05:38:24;94580.16;;;10.41;76.54
70127;BME280;57491;42.694;23.314;2024-03-02T05:40:52;94579.56;;;10.39;77.76
70127;BME280;57491;42.694;23.314;2024-03-02T05:43:19;94597.66;;;10.53;77.50
70127;BME280;57491;42.694;23.314;2024-03-02T05:45:46;94589.47;;;10.56;76.43
70127;BME280;57491;42.694;23.314;2024-03-02T05:48:15;94585.66;;;10.59;76.09
70127;BME280;57491;42.694;23.314;2024-03-02T05:50:42;94597.25;;;10.56;76.54
70127;BME280;57491;42.694;23.314;2024-03-02T05:53:10;94595.81;;;10.54;75.95
70127;BME280;57491;42.694;23.314;2024-03-02T05:55:38;94592.22;;;10.48;76.22
70127;BME280;57491;42.694;23.314;2024-03-02T05:58:05;94592.22;;;10.48;76.95
70127;BME280;57491;42.694;23.314;2024-03-02T06:00:48;94594.25;;;10.53;76.71
70127;BME280;57491;42.694;23.314;2024-03-02T06:03:17;94596.13;;;10.65;76.99
70127;BME280;57491;42.694;23.314;2024-03-02T06:05:44;94595.97;;;10.73;76.37
70127;BME280;57491;42.694;23.314;2024-03-02T06:08:11;94602.03;;;10.81;76.19
70127;BME280;57491;42.694;23.314;2024-03-02T06:10:38;94585.41;;;10.82;76.37
70127;BME280;57491;42.694;23.314;2024-03-02T06:13:06;94591.81;;;10.86;77.55
70127;BME280;57491;42.694;23.314;2024-03-02T06:15:33;94594.28;;;10.94;77.13
70127;BME280;57491;42.694;23.314;2024-03-02T06:18:01;94601.66;;;10.90;76.41
70127;BME280;57491;42.694;23.314;2024-03-02T06:20:30;94600.34;;;10.73;76.32
70127;BME280;57491;42.694;23.314;2024-03-02T06:22:57;94598.63;;;10.80;75.94
70127;BME280;57491;42.694;23.314;2024-03-02T06:25:25;94593.81;;;10.84;75.94
70127;BME280;57491;42.694;23.314;2024-03-02T06:27:52;94594.88;;;10.89;75.65
70127;BME280;57491;42.694;23.314;2024-03-02T06:30:18;94599.84;;;10.84;75.19
70127;BME280;57491;42.694;23.314;2024-03-02T06:32:45;94607.47;;;10.92;75.02
70127;BME280;57491;42.694;23.314;2024-03-02T06:35:13;94608.63;;;10.83;74.85
70127;BME280;57491;42.694;23.314;2024-03-02T06:37:42;94573.88;;;10.63;74.79
70127;BME280;57491;42.694;23.314;2024-03-02T06:40:09;94613.25;;;10.88;74.61
70127;BME280;57491;42.694;23.314;2024-03-02T06:42:37;94609.03;;;10.87;74.96
70127;BME280;57491;42.694;23.314;2024-03-02T06:45:05;94612.84;;;10.84;75.15
70127;BME280;57491;42.694;23.314;2024-03-02T06:47:32;94618.44;;;10.88;75.31
70127;BME280;57491;42.694;23.314;2024-03-02T06:50:00;94615.47;;;10.91;75.04
70127;BME280;57491;42.694;23.314;2024-03-02T06:52:28;94602.03;;;10.81;74.53
70127;BME280;57491;42.694;23.314;2024-03-02T06:54:57;94620.22;;;10.81;74.35
70127;BME280;57491;42.694;23.314;2024-03-02T06:57:24;94624.97;;;10.77;75.21
70127;BME280;57491;42.694;23.314;2024-03-02T06:59:51;94625.78;;;10.78;74.60
70127;BME280;57491;42.694;23.314;2024-03-02T07:02:20;94633.88;;;10.61;74.54
70127;BME280;57491;42.694;23.314;2024-03-02T07:04:48;94631.38;;;10.47;74.68
70127;BME280;57491;42.694;23.314;2024-03-02T07:07:17;94634.22;;;10.52;74.40
70127;BME280;57491;42.694;23.314;2024-03-02T07:09:44;94608.38;;;10.44;74.84
70127;BME280;57491;42.694;23.314;2024-03-02T07:12:12;94628.63;;;10.55;75.33
70127;BME280;57491;42.694;23.314;2024-03-02T07:14:40;94624.72;;;10.65;75.96
70127;BME280;57491;42.694;23.314;2024-03-02T07:17:24;94628.72;;;10.68;75.09
70127;BME280;57491;42.694;23.314;2024-03-02T07:19:52;94636.75;;;10.73;74.96
70127;BME280;57491;42.694;23.314;2024-03-02T07:22:19;94632.94;;;10.69;74.74
70127;BME280;57491;42.694;23.314;2024-03-02T07:24:46;94620.50;;;10.64;74.00
70127;BME280;57491;42.694;23.314;2024-03-02T07:27:16;94632.13;;;10.68;74.59
70127;BME280;57491;42.694;23.314;2024-03-02T07:29:43;94631.38;;;10.74;74.63
70127;BME280;57491;42.694;23.314;2024-03-02T07:32:11;94639.19;;;10.81;74.18
70127;BME280;57491;42.694;23.314;2024-03-02T07:34:38;94639.03;;;10.83;74.30
70127;BME280;57491;42.694;23.314;2024-03-02T07:37:05;94641.81;;;10.81;74.34
70127;BME280;57491;42.694;23.314;2024-03-02T07:39:32;94623.59;;;10.81;75.59
70127;BME280;57491;42.694;23.314;2024-03-02T07:41:59;94636.31;;;10.97;75.00
70127;BME280;57491;42.694;23.314;2024-03-02T07:44:28;94642.50;;;10.96;74.34
70127;BME280;57491;42.694;23.314;2024-03-02T07:46:56;94638.72;;;10.99;74.29
70127;BME280;57491;42.694;23.314;2024-03-02T07:49:23;94641.13;;;11.00;74.20
70127;BME280;57491;42.694;23.314;2024-03-02T07:51:51;94642.75;;;11.01;73.62
70127;BME280;57491;42.694;23.314;2024-03-02T07:54:18;94644.94;;;10.98;73.28
70127;BME280;57491;42.694;23.314;2024-03-02T07:56:46;94643.34;;;11.03;73.93
70127;BME280;57491;42.694;23.314;2024-03-02T07:59:14;94653.09;;;10.95;72.86
70127;BME280;57491;42.694;23.314;2024-03-02T08:01:42;94652.69;;;10.91;73.72
70127;BME280;57491;42.694;23.314;2024-03-02T08:04:09;94645.69;;;10.92;73.55
70127;BME280;57491;42.694;23.314;2024-03-02T08:06:37;94660.44;;;10.85;73.26
70127;BME280;57491;42.694;23.314;2024-03-02T08:09:04;94619.03;;;10.55;73.97
70127;BME280;57491;42.694;23.314;2024-03-02T08:11:35;94654.47;;;10.63;74.85
70127;BME280;57491;42.694;23.314;2024-03-02T08:14:03;94664.69;;;10.64;74.55
70127;BME280;57491;42.694;23.314;2024-03-02T08:16:30;94661.91;;;10.66;74.56
70127;BME280;57491;42.694;23.314;2024-03-02T08:19:00;94659.91;;;10.68;75.11
70127;BME280;57491;42.694;23.314;2024-03-02T08:21:27;94662.59;;;10.81;75.38
70127;BME280;57491;42.694;23.314;2024-03-02T08:23:56;94667.88;;;10.88;75.28
70127;BME280;57491;42.694;23.314;2024-03-02T08:26:24;94662.81;;;10.80;74.57
70127;BME280;57491;42.694;23.314;2024-03-02T08:28:54;94657.28;;;10.89;74.57
70127;BME280;57491;42.694;23.314;2024-03-02T08:31:24;94655.09;;;10.93;75.55
70127;BME280;57491;42.694;23.314;2024-03-02T08:33:51;94650.88;;;10.92;74.46
70127;BME280;57491;42.694;23.314;2024-03-02T08:36:20;94655.56;;;11.03;74.09
70127;BME280;57491;42.694;23.314;2024-03-02T08:38:48;94650.78;;;11.13;73.69
70127;BME280;57491;42.694;23.314;2024-03-02T08:41:15;94658.41;;;11.14;74.32
70127;BME280;57491;42.694;23.314;2024-03-02T08:43:43;94657.50;;;11.35;74.34
70127;BME280;57491;42.694;23.314;2024-03-02T08:46:11;94654.78;;;11.50;72.90
70127;BME280;57491;42.694;23.314;2024-03-02T08:48:38;94619.69;;;11.39;71.83
70127;BME280;57491;42.694;23.314;2024-03-02T08:51:05;94655.09;;;11.81;72.18
70127;BME280;57491;42.694;23.314;2024-03-02T08:53:36;94661.34;;;11.87;71.08
70127;BME280;57491;42.694;23.314;2024-03-02T08:56:04;94658.16;;;11.98;69.79
70127;BME280;57491;42.694;23.314;2024-03-02T08:58:32;94656.78;;;12.02;70.54
70127;BME280;57491;42.694;23.314;2024-03-02T09:00:59;94650.38;;;12.11;69.77
70127;BME280;57491;42.694;23.314;2024-03-02T09:03:26;94655.75;;;11.96;67.68
70127;BME280;57491;42.694;23.314;2024-03-02T09:05:54;94657.31;;;11.84;68.57
70127;BME280;57491;42.694;23.314;2024-03-02T09:08:21;94660.59;;;12.06;70.07
70127;BME280;57491;42.694;23.314;2024-03-02T09:10:49;94656.38;;;12.05;69.17
70127;BME280;57491;42.694;23.314;2024-03-02T09:13:17;94660.81;;;12.24;68.86
70127;BME280;57491;42.694;23.314;2024-03-02T09:15:44;94664.41;;;12.43;69.48
70127;BME280;57491;42.694;23.314;2024-03-02T09:18:11;94670.03;;;12.40;67.81
70127;BME280;57491;42.694;23.314;2024-03-02T09:20:39;94670.66;;;12.35;67.07
70127;BME280;57491;42.694;23.314;2024-03-02T09:23:06;94668.44;;;12.26;67.78
70127;BME280;57491;42.694;23.314;2024-03-02T09:25:33;94665.38;;;12.02;68.16
70127;BME280;57491;42.694;23.314;2024-03-02T09:28:02;94665.22;;;12.11;68.74
70127;BME280;57491;42.694;23.314;2024-03-02T09:30:29;94669.81;;;12.22;68.69
70127;BME280;57491;42.694;23.314;2024-03-02T09:32:58;94669.03;;;12.28;69.45
70127;BME280;57491;42.694;23.314;2024-03-02T09:35:28;94674.66;;;12.38;67.89
70127;BME280;57491;42.694;23.314;2024-03-02T09:37:55;94660.22;;;12.29;67.40
70127;BME280;57491;42.694;23.314;2024-03-02T09:40:23;94678.09;;;12.51;67.19
70127;BME280;57491;42.694;23.314;2024-03-02T09:42:51;94677.66;;;12.61;68.23
70127;BME280;57491;42.694;23.314;2024-03-02T09:45:23;94681.06;;;12.62;67.55
70127;BME280;57491;42.694;23.314;2024-03-02T09:47:51;94673.28;;;12.68;67.90
70127;BME280;57491;42.694;23.314;2024-03-02T09:50:18;94668.84;;;12.75;66.50
70127;BME280;57491;42.694;23.314;2024-03-02T09:52:48;94676.88;;;12.80;67.44
70127;BME280;57491;42.694;23.314;2024-03-02T09:55:15;94680.28;;;12.87;67.11
70127;BME280;57491;42.694;23.314;2024-03-02T09:57:45;94681.88;;;12.88;66.89
70127;BME280;57491;42.694;23.314;2024-03-02T10:00:13;94667.03;;;12.82;67.15
70127;BME280;57491;42.694;23.314;2024-03-02T10:02:42;94667.03;;;12.89;67.74
70127;BME280;57491;42.694;23.314;2024-03-02T10:05:09;94682.69;;;12.95;66.15
70127;BME280;57491;42.694;23.314;2024-03-02T10:07:37;94678.88;;;12.91;67.22
70127;BME280;57491;42.694;23.314;2024-03-02T10:10:15;94669.06;;;12.87;66.24
70127;BME280;57491;42.694;23.314;2024-03-02T10:12:42;94676.47;;;12.96;65.98
70127;BME280;57491;42.694;23.314;2024-03-02T10:15:09;94645.97;;;12.77;66.30
70127;BME280;57491;42.694;23.314;2024-03-02T10:17:37;94673.44;;;12.93;66.27
70127;BME280;57491;42.694;23.314;2024-03-02T10:20:25;94675.25;;;12.92;67.07
70127;BME280;57491;42.694;23.314;2024-03-02T10:22:54;94676.06;;;12.86;67.25
70127;BME280;57491;42.694;23.314;2024-03-02T10:25:29;94680.91;;;12.83;68.19
70127;BME280;57491;42.694;23.314;2024-03-02T10:27:58;94641.19;;;12.55;66.30
70127;BME280;57491;42.694;23.314;2024-03-02T10:30:26;94676.88;;;12.74;66.95
70127;BME280;57491;42.694;23.314;2024-03-02T10:32:53;94670.03;;;12.66;66.42
70127;BME280;57491;42.694;23.314;2024-03-02T10:35:23;94672.88;;;12.58;66.29
70127;BME280;57491;42.694;23.314;2024-03-02T10:37:52;94674.28;;;12.61;68.62
70127;BME280;57491;42.694;23.314;2024-03-02T10:40:21;94673.06;;;12.63;68.79
70127;BME280;57491;42.694;23.314;2024-03-02T10:42:49;94666.44;;;12.54;68.30
70127;BME280;57491;42.694;23.314;2024-03-02T10:45:17;94670.06;;;12.53;69.98
70127;BME280;57491;42.694;23.314;2024-03-02T10:47:47;94671.66;;;12.47;69.59
70127;BME280;57491;42.694;23.314;2024-03-02T10:50:14;94671.88;;;12.46;70.19
70127;BME280;57491;42.694;23.314;2024-03-02T10:52:43;94664.22;;;12.44;71.34
70127;BME280;57491;42.694;23.314;2024-03-02T10:55:10;94664.22;;;12.44;71.33
70127;BME280;57491;42.694;23.314;2024-03-02T10:57:42;94660.03;;;12.50;71.09
70127;BME280;57491;42.694;23.314;2024-03-02T11:00:13;94650.19;;;12.39;71.11
70127;BME280;57491;42.694;23.314;2024-03-02T11:02:48;94658.44;;;12.56;70.42
70127;BME280;57491;42.694;23.314;2024-03-02T11:05:23;94652.00;;;12.45;70.60
70127;BME280;57491;42.694;23.314;2024-03-02T11:07:57;94659.03;;;12.51;70.55
70127;BME280;57491;42.694;23.314;2024-03-02T11:10:33;94660.63;;;12.52;69.84
70127;BME280;57491;42.694;23.314;2024-03-02T11:13:04;94662.44;;;12.58;70.91
70127;BME280;57491;42.694;23.314;2024-03-02T11:15:34;94656.63;;;12.56;71.32
70127;BME280;57491;42.694;23.314;2024-03-02T11:18:04;94652.63;;;12.60;71.33
70127;BME280;57491;42.694;23.314;2024-03-02T11:20:36;94651.19;;;12.58;71.04
70127;BME280;57491;42.694;23.314;2024-03-02T11:23:08;94652.41;;;12.62;69.96
70127;BME280;57491;42.694;23.314;2024-03-02T11:25:36;94649.19;;;12.66;69.19
70127;BME280;57491;42.694;23.314;2024-03-02T11:28:06;94651.59;;;12.61;68.91
70127;BME280;57491;42.694;23.314;2024-03-02T11:30:51;94650.19;;;12.72;68.63
70127;BME280;57491;42.694;23.314;2024-03-02T11:33:25;94648.56;;;12.71;69.82
70127;BME280;57491;42.694;23.314;2024-03-02T11:35:56;94642.56;;;12.64;69.97
70127;BME280;57491;42.694;23.314;2024-03-02T11:38:32;94621.50;;;12.52;70.92
70127;BME280;57491;42.694;23.314;2024-03-02T11:41:01;94629.16;;;12.47;70.97
70127;BME280;57491;42.694;23.314;2024-03-02T11:43:29;94647.38;;;12.67;69.66
70127;BME280;57491;42.694;23.314;2024-03-02T11:45:58;94650.00;;;12.67;70.46
70127;BME280;57491;42.694;23.314;2024-03-02T11:48:26;94651.59;;;12.68;69.92
70127;BME280;57491;42.694;23.314;2024-03-02T11:50:58;94649.59;;;12.76;69.49
70127;BME280;57491;42.694;23.314;2024-03-02T11:53:27;94654.81;;;12.83;68.46
70127;BME280;57491;42.694;23.314;2024-03-02T11:55:57;94639.13;;;12.89;68.60
70127;BME280;57491;42.694;23.314;2024-03-02T11:58:24;94648.72;;;13.09;67.45
70127;BME280;57491;42.694;23.314;2024-03-02T12:00:52;94647.72;;;13.23;66.90
70127;BME280;57491;42.694;23.314;2024-03-02T12:03:21;94634.06;;;13.21;66.25
70127;BME280;57491;42.694;23.314;2024-03-02T12:05:51;94650.88;;;13.38;65.75
70127;BME280;57491;42.694;23.314;2024-03-02T12:08:22;94640.44;;;13.38;65.09
70127;BME280;57491;42.694;23.314;2024-03-02T12:10:58;94623.19;;;13.24;66.02
70127;BME280;57491;42.694;23.314;2024-03-02T12:13:26;94638.38;;;13.47;65.67
70127;BME280;57491;42.694;23.314;2024-03-02T12:15:54;94635.81;;;13.40;65.08
70127;BME280;57491;42.694;23.314;2024-03-02T12:18:23;94643.41;;;13.48;68.21
70127;BME280;57491;42.694;23.314;2024-03-02T12:20:50;94644.41;;;13.47;67.16
70127;BME280;57491;42.694;23.314;2024-03-02T12:23:22;94639.00;;;13.42;66.91
70127;BME280;57491;42.694;23.314;2024-03-02T12:25:49;94638.88;;;13.24;66.93
70127;BME280;57491;42.694;23.314;2024-03-02T12:28:19;94647.91;;;13.28;66.36
70127;BME280;57491;42.694;23.314;2024-03-02T12:30:46;94646.50;;;13.32;66.82
70127;BME280;57491;42.694;23.314;2024-03-02T12:33:14;94630.59;;;13.40;66.42
70127;BME280;57491;42.694;23.314;2024-03-02T12:35:42;94642.22;;;13.44;65.53
70127;BME280;57491;42.694;23.314;2024-03-02T12:38:09;94626.19;;;13.34;64.81
70127;BME280;57491;42.694;23.314;2024-03-02T12:40:38;94630.41;;;13.35;64.60
70127;BME280;57491;42.694;23.314;2024-03-02T12:43:05;94635.81;;;13.40;64.00
70127;BME280;57491;42.694;23.314;2024-03-02T12:45:34;94643.03;;;13.45;64.02
70127;BME280;57491;42.694;23.314;2024-03-02T12:48:03;94646.44;;;13.45;64.17
70127;BME280;57491;42.694;23.314;2024-03-02T12:50:31;94638.25;;;13.35;64.57
70127;BME280;57491;42.694;23.314;2024-03-02T12:52:59;94639.28;;;13.27;65.20
70127;BME280;57491;42.694;23.314;2024-03-02T12:55:26;94650.28;;;13.36;65.76
70127;BME280;57491;42.694;23.314;2024-03-02T12:57:54;94658.31;;;13.41;65.62